createdAt,value
2022-10-03T00:02:31.590Z,29.85
2022-10-03T00:05:26.638Z,29.86
2022-10-03T00:08:07.957Z,29.86
2022-10-03T00:11:06.357Z,29.86
2022-10-03T00:13:44.988Z,29.88
2022-10-03T00:16:40.273Z,29.88
2022-10-03T00:19:22.156Z,29.84
2022-10-03T00:22:13.140Z,29.88
2022-10-03T00:25:07.780Z,29.84
2022-10-03T00:28:10.571Z,29.87
2022-10-03T00:30:53.648Z,29.88
2022-10-03T00:33:24.612Z,29.88
2022-10-03T00:36:04.805Z,29.86
2022-10-03T00:38:47.355Z,29.88
2022-10-03T00:41:44.724Z,29.90
2022-10-03T00:44:33.055Z,29.90
2022-10-03T00:47:29.927Z,29.91
2022-10-03T00:50:18.287Z,29.92
2022-10-03T00:52:57.310Z,29.93
2022-10-03T00:55:37.214Z,29.93
2022-10-03T00:58:29.299Z,29.93
2022-10-03T01:01:24.314Z,29.94
2022-10-03T01:04:01.536Z,29.93
2022-10-03T01:07:04.348Z,29.94
2022-10-03T01:09:53.241Z,29.93
2022-10-03T01:12:45.012Z,29.93
2022-10-03T01:15:39.738Z,29.94
2022-10-03T01:18:50.779Z,29.95
2022-10-03T01:21:43.642Z,29.97
2022-10-03T01:24:22.994Z,29.95
2022-10-03T01:27:01.538Z,29.95
2022-10-03T01:30:13.946Z,29.97
2022-10-03T01:33:13.487Z,29.98
2022-10-03T01:36:05.246Z,29.97
2022-10-03T01:39:05.102Z,29.98
2022-10-03T01:41:49.053Z,29.96
2022-10-03T01:44:31.787Z,29.99
2022-10-03T01:47:26.668Z,29.98
2022-10-03T01:50:01.631Z,29.98
2022-10-03T01:52:45.507Z,29.99
2022-10-03T01:55:45.166Z,30.00
2022-10-03T01:58:42.471Z,30.02
2022-10-03T02:01:24.764Z,30.01
2022-10-03T02:04:15.683Z,30.01
2022-10-03T02:07:02.441Z,30.01
2022-10-03T02:09:37.207Z,30.01
2022-10-03T02:12:17.404Z,30.02
2022-10-03T02:15:01.019Z,30.05
2022-10-03T02:17:51.321Z,30.05
2022-10-03T02:20:46.285Z,30.03
2022-10-03T02:23:46.892Z,30.06
2022-10-03T02:26:38.514Z,30.06
2022-10-03T02:29:27.366Z,30.07
2022-10-03T02:32:34.702Z,30.04
2022-10-03T02:35:14.430Z,30.01
2022-10-03T02:38:09.208Z,30.01
2022-10-03T02:41:17.007Z,30.00
2022-10-03T02:44:17.773Z,30.03
2022-10-03T02:47:06.598Z,30.03
2022-10-03T02:50:01.740Z,30.05
2022-10-03T02:53:17.419Z,30.06
2022-10-03T02:55:53.636Z,30.04
2022-10-03T02:58:29.708Z,30.05
2022-10-03T03:01:38.136Z,30.04
2022-10-03T03:04:39.588Z,30.05
2022-10-03T03:07:41.258Z,30.07
2022-10-03T03:10:36.281Z,30.08
2022-10-03T03:13:25.152Z,30.11
2022-10-03T03:16:10.420Z,30.11
2022-10-03T03:19:20.713Z,30.12
2022-10-03T03:22:28.103Z,30.12
2022-10-03T03:25:24.309Z,30.14
2022-10-03T03:28:24.902Z,30.14
2022-10-03T03:31:28.643Z,30.13
2022-10-03T03:34:21.849Z,30.14
2022-10-03T03:37:30.327Z,30.14
2022-10-03T03:40:04.108Z,30.15
2022-10-03T03:42:59.147Z,30.19
2022-10-03T03:45:32.427Z,30.19
2022-10-03T03:48:45.168Z,30.22
2022-10-03T03:51:26.218Z,30.23
2022-10-03T03:54:19.733Z,30.23
2022-10-03T03:56:56.397Z,30.23
2022-10-03T03:59:44.487Z,30.25
2022-10-03T04:02:21.255Z,30.25
2022-10-03T04:05:13.840Z,30.24
2022-10-03T04:08:16.944Z,30.23
2022-10-03T04:11:21.921Z,30.25
2022-10-03T04:14:13.353Z,30.25
2022-10-03T04:17:08.117Z,30.27
2022-10-03T04:20:05.228Z,30.23
2022-10-03T04:23:10.794Z,30.22
2022-10-03T04:26:20.891Z,30.20
2022-10-03T04:29:23.036Z,30.21
2022-10-03T04:32:18.101Z,30.20
2022-10-03T04:35:07.306Z,30.24
2022-10-03T04:38:04.396Z,30.28
2022-10-03T04:40:56.927Z,30.28
2022-10-03T04:43:51.496Z,30.31
2022-10-03T04:46:30.984Z,30.33
2022-10-03T04:49:09.506Z,30.33
2022-10-03T04:51:52.074Z,30.37
2022-10-03T04:54:46.651Z,30.36
2022-10-03T04:57:48.866Z,30.40
2022-10-03T05:00:27.889Z,30.41
2022-10-03T05:03:23.280Z,30.42
2022-10-03T05:06:23.574Z,30.41
2022-10-03T05:09:08.848Z,30.43
2022-10-03T05:11:45.297Z,30.43
2022-10-03T05:14:40.066Z,30.45
2022-10-03T05:17:24.247Z,30.46
2022-10-03T05:20:17.543Z,30.46
2022-10-03T05:22:56.299Z,30.46
2022-10-03T05:25:42.152Z,30.48
2022-10-03T05:28:24.992Z,30.48
2022-10-03T05:31:06.446Z,30.50
2022-10-03T05:33:36.312Z,30.53
2022-10-03T05:36:21.122Z,30.52
2022-10-03T14:28:11.031Z,28.78
2022-10-03T14:31:17.156Z,28.82
2022-10-03T14:34:14.077Z,28.79
2022-10-03T14:37:08.199Z,28.78
2022-10-03T14:39:44.091Z,28.85
2022-10-03T14:42:42.598Z,28.96
2022-10-03T14:45:36.169Z,28.97
2022-10-03T14:48:15.108Z,29.01
2022-10-03T14:50:47.711Z,29.01
2022-10-03T14:53:23.264Z,29.04
2022-10-03T14:56:05.600Z,29.07
2022-10-03T14:58:47.143Z,29.04
2022-10-03T15:01:23.357Z,29.02
2022-10-03T15:04:16.485Z,29.04
2022-10-03T15:07:06.517Z,29.05
2022-10-03T15:09:43.028Z,29.14
2022-10-03T15:12:22.904Z,29.17
2022-10-03T15:15:25.882Z,29.17
2022-10-03T15:17:59.654Z,29.18
2022-10-03T15:20:36.954Z,29.20
2022-10-03T15:23:13.611Z,29.25
2022-10-03T15:25:45.377Z,29.27
2022-10-03T15:28:22.480Z,29.30
2022-10-03T15:30:55.125Z,29.33
2022-10-03T15:33:36.906Z,29.35
2022-10-03T15:36:24.355Z,29.39
2022-10-03T15:39:06.426Z,29.36
2022-10-03T15:41:51.071Z,29.40
2022-10-03T15:44:25.965Z,29.39
2022-10-03T15:47:04.645Z,29.37
2022-10-03T15:49:59.731Z,29.38
2022-10-03T15:53:24.062Z,29.37
2022-10-03T15:56:11.251Z,29.37
2022-10-03T15:58:57.367Z,29.33
2022-10-03T16:07:55.201Z,29.40
2022-10-03T16:11:00.442Z,29.37
2022-10-03T16:14:12.521Z,29.39
2022-10-03T16:17:06.149Z,29.36
2022-10-03T16:19:41.809Z,29.36
2022-10-03T16:22:20.858Z,29.34
2022-10-03T16:25:07.721Z,29.39
2022-10-03T16:27:43.721Z,29.38
2022-10-03T16:33:08.682Z,29.35
2022-10-03T16:35:41.351Z,29.39
2022-10-03T16:38:35.048Z,29.39
2022-10-03T16:44:26.123Z,29.34
2022-10-03T16:47:02.395Z,29.40
2022-10-03T16:50:18.117Z,29.41
2022-10-03T16:53:14.952Z,29.39
2022-10-03T16:56:16.812Z,29.35
2022-10-03T16:59:14.518Z,29.39
2022-10-03T17:02:09.133Z,29.35
2022-10-03T17:07:50.448Z,29.36
2022-10-03T17:10:33.763Z,29.39
2022-10-03T17:16:36.103Z,29.40
2022-10-03T17:19:39.857Z,29.38
2022-10-03T17:22:59.508Z,29.39
2022-10-03T17:25:32.933Z,29.38
2022-10-03T17:28:47.861Z,29.37
2022-10-03T17:31:50.718Z,29.39
2022-10-03T17:34:43.996Z,29.36
2022-10-03T17:37:32.727Z,29.33
2022-10-03T17:43:42.961Z,29.32
2022-10-03T17:50:08.239Z,29.29
2022-10-03T17:52:44.102Z,29.31
2022-10-03T17:55:32.119Z,29.30
2022-10-03T17:58:08.150Z,29.35
2022-10-03T18:01:12.386Z,29.29
2022-10-03T18:03:54.732Z,29.32
2022-10-03T18:07:25.376Z,29.30
2022-10-03T18:09:57.978Z,29.33
2022-10-03T18:12:42.548Z,29.32
2022-10-03T18:15:43.349Z,29.32
2022-10-03T18:18:38.058Z,29.30
2022-10-03T18:22:04.425Z,29.32
2022-10-03T18:24:46.264Z,29.29
2022-10-03T18:27:39.106Z,29.31
2022-10-03T18:30:38.945Z,29.28
2022-10-03T18:33:35.592Z,29.31
2022-10-03T18:39:22.719Z,29.33
2022-10-03T18:42:03.645Z,29.31
2022-10-03T18:50:42.750Z,29.31
2022-10-03T18:53:57.690Z,29.30
2022-10-03T18:56:29.440Z,29.28
2022-10-03T18:59:32.673Z,29.28
2022-10-03T19:05:15.602Z,29.31
2022-10-03T19:08:23.313Z,29.31
2022-10-03T19:14:09.044Z,29.30
2022-10-03T19:17:24.387Z,29.29
2022-10-03T19:19:59.346Z,29.33
2022-10-03T19:22:45.838Z,29.28
2022-10-03T19:25:27.512Z,29.31
2022-10-03T19:28:08.416Z,29.29
2022-10-03T19:31:06.018Z,29.26
2022-10-03T19:34:01.656Z,29.28
2022-10-03T19:36:52.999Z,29.28
2022-10-03T19:39:25.068Z,29.27
2022-10-03T19:42:25.035Z,29.25
2022-10-03T19:45:19.175Z,29.28
2022-10-03T19:48:13.919Z,29.24
2022-10-03T19:50:44.674Z,29.26
2022-10-03T19:53:34.751Z,29.24
2022-10-03T19:56:07.712Z,29.30
2022-10-03T19:59:46.894Z,29.26
2022-10-03T20:05:25.780Z,29.22
2022-10-03T20:08:40.989Z,29.24
2022-10-03T20:11:47.501Z,29.21
2022-10-03T20:17:30.435Z,29.19
2022-10-03T20:20:09.879Z,29.21
2022-10-03T20:22:40.206Z,29.20
2022-10-03T20:25:41.742Z,29.20
2022-10-03T20:28:25.502Z,29.17
2022-10-03T20:30:56.422Z,29.21
2022-10-03T20:33:29.710Z,29.20
2022-10-03T20:36:26.011Z,29.19
2022-10-03T20:39:28.556Z,29.18
2022-10-03T20:42:02.295Z,29.17
2022-10-03T20:44:44.170Z,29.19
2022-10-03T20:47:47.769Z,29.17
2022-10-03T20:50:39.172Z,29.19
2022-10-03T20:53:25.403Z,29.17
2022-10-03T20:56:05.753Z,29.19
2022-10-03T20:58:51.066Z,29.15
2022-10-03T21:01:26.857Z,29.15
2022-10-03T21:04:09.222Z,29.15
2022-10-03T21:07:00.449Z,29.17
2022-10-03T21:10:06.064Z,29.12
2022-10-03T21:12:54.820Z,29.17
2022-10-03T21:15:33.075Z,29.14
2022-10-03T21:21:01.870Z,29.13
2022-10-03T21:23:37.428Z,29.16
2022-10-03T21:26:10.617Z,29.13
2022-10-03T21:28:41.069Z,29.13
2022-10-03T21:31:11.221Z,29.13
2022-10-03T21:33:47.715Z,29.12
2022-10-03T21:36:52.101Z,29.13
2022-10-03T21:39:51.756Z,29.10
2022-10-03T21:42:34.508Z,29.10
2022-10-03T21:45:31.253Z,29.10
2022-10-03T21:48:14.502Z,29.09
2022-10-03T21:51:08.240Z,29.10
2022-10-03T21:53:41.281Z,29.09
2022-10-03T21:56:20.553Z,29.11
2022-10-03T21:59:01.736Z,29.12
2022-10-03T22:02:09.014Z,29.12
2022-10-03T22:04:48.017Z,29.06
2022-10-03T22:07:20.727Z,29.12
2022-10-03T22:10:01.141Z,29.14
2022-10-03T22:12:45.109Z,29.13
2022-10-03T22:15:39.754Z,29.09
2022-10-03T22:18:22.758Z,29.17
2022-10-03T22:21:17.521Z,29.13
2022-10-03T22:24:04.011Z,29.16
2022-10-03T22:26:41.925Z,29.16
2022-10-03T22:29:43.958Z,29.19
2022-10-03T22:32:44.874Z,29.17
2022-10-03T22:35:45.321Z,29.21
2022-10-03T22:38:16.674Z,29.15
2022-10-03T22:40:49.286Z,29.14
2022-10-03T22:43:21.293Z,29.17
2022-10-03T22:45:54.297Z,29.13
2022-10-03T22:48:40.546Z,29.13
2022-10-03T22:51:14.825Z,29.14
2022-10-03T22:56:48.615Z,29.17
2022-10-03T22:59:34.519Z,29.10
2022-10-03T23:02:09.988Z,29.01
2022-10-03T23:04:42.868Z,28.99
2022-10-03T23:07:18.598Z,28.94
2022-10-03T23:10:19.687Z,29.00
2022-10-03T23:13:15.479Z,29.06
2022-10-03T23:15:51.038Z,29.12
2022-10-03T23:18:51.462Z,29.08
2022-10-03T23:21:21.700Z,29.09
2022-10-03T23:24:02.906Z,29.10
2022-10-03T23:27:13.492Z,29.10
2022-10-03T23:29:44.211Z,29.13
2022-10-03T23:32:14.723Z,29.10
2022-10-03T23:34:46.326Z,29.13
2022-10-03T23:37:17.046Z,29.11
2022-10-03T23:39:59.223Z,29.14
2022-10-03T23:42:35.093Z,29.11
2022-10-03T23:45:17.033Z,29.14
2022-10-03T23:48:19.767Z,29.12
2022-10-03T23:50:53.540Z,29.13
2022-10-03T23:53:41.482Z,29.11
2022-10-03T23:56:30.195Z,29.10
2022-10-03T23:59:14.033Z,29.10
